createdAt,value
2022-12-31T00:01:29.769Z,9.10
2022-12-31T00:03:57.452Z,9.20
2022-12-31T00:06:26.493Z,9.20
2022-12-31T00:08:55.648Z,9.20
2022-12-31T00:11:24.029Z,9.30
2022-12-31T00:13:53.309Z,9.30
2022-12-31T00:16:22.703Z,9.30
2022-12-31T00:18:51.845Z,9.30
2022-12-31T00:21:20.300Z,9.40
2022-12-31T00:23:48.408Z,9.40
2022-12-31T00:26:17.690Z,9.40
2022-12-31T00:28:45.113Z,9.40
2022-12-31T00:31:15.813Z,9.40
2022-12-31T00:33:44.116Z,9.40
2022-12-31T00:36:13.416Z,9.50
2022-12-31T00:38:42.009Z,9.50
2022-12-31T00:41:10.193Z,9.50
2022-12-31T00:43:37.661Z,9.50
2022-12-31T00:46:06.424Z,9.60
2022-12-31T00:48:35.899Z,9.50
2022-12-31T00:51:06.291Z,9.50
2022-12-31T00:53:33.917Z,9.50
2022-12-31T00:56:01.537Z,9.50
2022-12-31T00:58:28.995Z,9.50
2022-12-31T01:00:56.624Z,9.50
2022-12-31T01:03:24.804Z,9.40
2022-12-31T01:05:58.351Z,9.50
2022-12-31T01:08:25.573Z,9.40
2022-12-31T01:11:11.575Z,9.40
2022-12-31T01:13:38.760Z,9.40
2022-12-31T01:16:09.834Z,9.40
2022-12-31T01:18:37.064Z,9.40
2022-12-31T01:21:07.968Z,9.40
2022-12-31T01:23:35.469Z,9.40
2022-12-31T01:26:04.515Z,9.40
2022-12-31T01:28:32.563Z,9.40
2022-12-31T01:31:03.049Z,9.40
2022-12-31T01:33:30.351Z,9.40
2022-12-31T01:36:02.313Z,9.40
2022-12-31T01:38:31.024Z,9.40
2022-12-31T01:40:58.209Z,9.50
2022-12-31T01:43:42.103Z,9.50
2022-12-31T01:46:12.399Z,9.50
2022-12-31T01:48:39.996Z,9.50
2022-12-31T01:51:09.770Z,9.50
2022-12-31T01:53:40.897Z,9.60
2022-12-31T01:56:08.485Z,9.60
2022-12-31T01:58:39.182Z,9.60
2022-12-31T02:01:08.297Z,9.60
2022-12-31T02:03:36.183Z,9.70
2022-12-31T02:06:08.157Z,9.70
2022-12-31T02:08:41.775Z,9.70
2022-12-31T02:11:26.779Z,9.80
2022-12-31T02:13:58.649Z,9.80
2022-12-31T02:16:34.504Z,9.90
2022-12-31T02:19:25.929Z,9.90
2022-12-31T02:22:02.040Z,10.00
2022-12-31T02:24:55.378Z,10.00
2022-12-31T02:27:38.381Z,10.00
2022-12-31T02:30:14.967Z,10.10
2022-12-31T02:33:04.132Z,10.20
2022-12-31T02:35:41.443Z,10.20
2022-12-31T02:38:12.842Z,10.20
2022-12-31T02:40:40.399Z,10.20
2022-12-31T02:43:07.627Z,10.20
2022-12-31T02:45:40.495Z,10.30
2022-12-31T02:48:26.249Z,10.30
2022-12-31T02:51:00.282Z,10.40
2022-12-31T02:53:42.899Z,10.40
2022-12-31T02:56:17.184Z,10.40
2022-12-31T02:59:11.740Z,10.40
2022-12-31T03:02:06.593Z,10.40
2022-12-31T03:04:34.391Z,10.30
2022-12-31T03:07:04.327Z,10.30
2022-12-31T03:09:31.610Z,10.30
2022-12-31T03:12:18.247Z,10.30
2022-12-31T03:14:45.437Z,10.30
2022-12-31T03:17:14.001Z,10.20
2022-12-31T03:19:59.996Z,10.20
2022-12-31T03:22:27.276Z,10.20
2022-12-31T03:25:14.100Z,10.20
2022-12-31T03:27:42.785Z,10.20
2022-12-31T03:30:11.340Z,10.20
2022-12-31T03:32:40.459Z,10.20
2022-12-31T03:35:09.236Z,10.20
2022-12-31T03:37:36.426Z,10.20
2022-12-31T03:40:04.098Z,10.30
2022-12-31T03:42:31.290Z,10.30
2022-12-31T03:44:58.463Z,10.30
2022-12-31T03:47:25.687Z,10.30
2022-12-31T03:49:54.215Z,10.30
2022-12-31T03:52:21.718Z,10.30
2022-12-31T03:54:48.999Z,10.40
2022-12-31T03:57:16.260Z,10.40
2022-12-31T03:59:43.483Z,10.40
2022-12-31T04:02:10.987Z,10.40
2022-12-31T04:04:38.330Z,10.40
2022-12-31T04:07:07.015Z,10.40
2022-12-31T04:09:34.186Z,10.50
2022-12-31T04:12:01.407Z,10.50
2022-12-31T04:14:28.651Z,10.50
2022-12-31T04:16:55.838Z,10.50
2022-12-31T04:19:23.009Z,10.50
2022-12-31T04:21:50.233Z,10.50
2022-12-31T04:24:18.734Z,10.60
2022-12-31T04:26:45.954Z,10.60
2022-12-31T04:29:13.143Z,10.60
2022-12-31T04:31:40.342Z,10.60
2022-12-31T04:34:07.636Z,10.70
2022-12-31T04:36:34.826Z,10.70
2022-12-31T04:39:02.009Z,10.70
2022-12-31T04:41:30.599Z,10.70
2022-12-31T04:43:58.943Z,10.80
2022-12-31T04:46:30.047Z,10.80
2022-12-31T04:48:57.515Z,10.80
2022-12-31T04:51:27.037Z,10.80
2022-12-31T04:53:54.793Z,10.90
2022-12-31T04:56:22.044Z,10.90
2022-12-31T04:58:50.940Z,10.90
2022-12-31T05:01:18.335Z,10.90
2022-12-31T05:03:46.218Z,10.90
2022-12-31T05:06:15.944Z,11.00
2022-12-31T05:08:44.113Z,11.00
2022-12-31T05:11:12.223Z,11.10
2022-12-31T05:13:39.558Z,11.10
2022-12-31T05:16:08.719Z,11.20
2022-12-31T05:18:36.911Z,11.20
2022-12-31T05:21:05.016Z,11.20
2022-12-31T05:23:32.541Z,11.20
2022-12-31T05:25:59.790Z,11.20
2022-12-31T05:28:27.251Z,11.30
2022-12-31T05:30:54.560Z,11.30
2022-12-31T05:33:23.316Z,11.30
2022-12-31T05:35:50.644Z,11.30
2022-12-31T05:38:17.896Z,11.30
2022-12-31T05:40:45.113Z,11.30
2022-12-31T05:43:12.293Z,11.30
2022-12-31T05:45:39.466Z,11.30
2022-12-31T05:48:06.797Z,11.40
2022-12-31T05:50:35.280Z,11.50
2022-12-31T05:53:04.545Z,11.50
2022-12-31T05:55:31.745Z,11.50
2022-12-31T05:57:58.938Z,11.50
2022-12-31T06:00:26.127Z,11.50
2022-12-31T06:02:53.385Z,11.60
2022-12-31T06:05:25.939Z,11.50
2022-12-31T06:07:54.900Z,11.60
2022-12-31T06:10:22.070Z,11.60
2022-12-31T06:12:49.287Z,11.70
2022-12-31T06:15:16.673Z,11.60
2022-12-31T06:17:43.846Z,11.60
2022-12-31T06:20:13.446Z,11.60
2022-12-31T06:22:40.764Z,11.70
2022-12-31T06:25:10.102Z,11.70
2022-12-31T06:27:37.382Z,11.70
2022-12-31T06:30:05.565Z,11.70
2022-12-31T06:32:32.762Z,11.70
2022-12-31T06:34:59.937Z,11.70
2022-12-31T06:37:27.136Z,11.80
2022-12-31T06:39:54.308Z,11.80
2022-12-31T06:42:22.799Z,11.80
2022-12-31T06:44:49.984Z,11.80
2022-12-31T06:47:17.175Z,11.80
2022-12-31T06:49:44.395Z,11.80
2022-12-31T06:52:11.549Z,11.80
2022-12-31T06:54:39.259Z,11.80
2022-12-31T06:57:08.582Z,11.90
2022-12-31T06:59:37.960Z,12.00
2022-12-31T07:02:21.545Z,12.00
2022-12-31T07:05:09.923Z,12.00
2022-12-31T07:07:48.591Z,12.00
2022-12-31T07:10:29.751Z,12.10
2022-12-31T07:13:10.110Z,12.10
2022-12-31T07:15:51.092Z,12.20
2022-12-31T07:18:30.732Z,12.20
2022-12-31T07:21:00.356Z,12.30
2022-12-31T07:23:28.183Z,12.30
2022-12-31T07:26:03.063Z,12.30
2022-12-31T07:28:42.664Z,12.40
2022-12-31T07:31:22.310Z,12.40
2022-12-31T07:33:58.725Z,12.50
2022-12-31T07:36:42.243Z,12.50
2022-12-31T07:39:13.119Z,12.50
2022-12-31T07:41:51.187Z,12.60
2022-12-31T07:44:34.039Z,12.70
2022-12-31T07:47:05.105Z,12.70
2022-12-31T07:49:34.207Z,12.70
2022-12-31T07:52:02.953Z,12.80
2022-12-31T07:54:30.136Z,12.80
2022-12-31T07:56:57.911Z,12.90
2022-12-31T07:59:40.354Z,12.90
2022-12-31T08:02:18.343Z,12.90
2022-12-31T08:04:55.709Z,13.00
2022-12-31T08:07:29.420Z,13.00
2022-12-31T08:10:03.516Z,13.10
2022-12-31T08:12:33.927Z,13.10
2022-12-31T08:15:01.725Z,13.20
2022-12-31T08:17:30.588Z,13.20
2022-12-31T08:19:58.327Z,13.30
2022-12-31T08:22:40.025Z,13.30
2022-12-31T08:25:16.852Z,13.30
2022-12-31T08:27:52.472Z,13.30
2022-12-31T08:30:21.958Z,13.40
2022-12-31T08:32:58.450Z,13.40
2022-12-31T08:35:35.559Z,13.50
2022-12-31T08:38:11.495Z,13.50
2022-12-31T08:40:47.551Z,13.50
2022-12-31T08:43:27.281Z,13.60
2022-12-31T08:45:56.535Z,13.60
2022-12-31T08:48:32.732Z,13.60
2022-12-31T08:51:00.304Z,13.70
2022-12-31T08:53:28.119Z,13.70
2022-12-31T08:56:00.537Z,13.70
2022-12-31T08:58:39.195Z,13.80
2022-12-31T09:01:07.791Z,13.80
2022-12-31T09:03:55.641Z,13.90
2022-12-31T09:06:29.140Z,13.90
2022-12-31T09:09:05.798Z,14.00
2022-12-31T09:11:47.894Z,14.10
2022-12-31T09:14:29.980Z,14.10
2022-12-31T09:17:02.058Z,14.20
2022-12-31T09:19:30.586Z,14.20
2022-12-31T09:21:58.424Z,14.30
2022-12-31T09:24:26.100Z,14.30
2022-12-31T09:27:04.587Z,14.40
2022-12-31T09:29:43.296Z,14.40
2022-12-31T09:32:20.450Z,14.60
2022-12-31T09:34:55.189Z,14.80
2022-12-31T09:37:35.148Z,15.00
2022-12-31T09:40:20.026Z,15.20
2022-12-31T09:43:14.318Z,15.50
2022-12-31T09:46:05.346Z,15.80
2022-12-31T09:49:08.443Z,16.10
2022-12-31T09:51:45.140Z,16.30
2022-12-31T09:54:31.570Z,16.40
2022-12-31T09:57:23.204Z,16.60
2022-12-31T09:59:57.797Z,16.80
2022-12-31T10:02:43.507Z,17.00
2022-12-31T10:05:38.920Z,17.10
2022-12-31T10:08:17.854Z,17.30
2022-12-31T10:10:52.235Z,17.30
2022-12-31T10:13:39.174Z,17.30
2022-12-31T10:16:22.877Z,17.30
2022-12-31T10:19:12.877Z,17.30
2022-12-31T10:21:53.639Z,17.10
2022-12-31T10:24:40.556Z,17.10
2022-12-31T10:27:30.974Z,17.00
2022-12-31T10:30:03.558Z,17.00
2022-12-31T10:32:40.169Z,16.90
2022-12-31T10:35:21.519Z,16.90
2022-12-31T10:37:56.462Z,16.80
2022-12-31T10:40:50.823Z,16.80
2022-12-31T10:43:51.407Z,16.80
2022-12-31T10:46:45.872Z,16.70
2022-12-31T10:49:53.775Z,16.70
2022-12-31T10:52:54.897Z,16.60
2022-12-31T10:56:00.737Z,16.60
2022-12-31T10:58:51.856Z,16.50
2022-12-31T11:01:22.359Z,16.50
2022-12-31T11:04:35.931Z,16.50
2022-12-31T11:07:32.459Z,16.40
2022-12-31T11:10:24.341Z,16.40
2022-12-31T11:13:32.565Z,16.40
2022-12-31T11:16:21.783Z,16.30
2022-12-31T11:18:59.263Z,16.30
2022-12-31T11:21:41.397Z,16.30
2022-12-31T11:24:25.581Z,16.30
2022-12-31T11:27:07.971Z,16.20
2022-12-31T11:29:48.647Z,16.20
2022-12-31T11:32:28.348Z,16.20
2022-12-31T11:35:07.875Z,16.20
2022-12-31T11:37:45.165Z,16.20
2022-12-31T11:40:35.533Z,16.30
2022-12-31T11:43:26.033Z,16.30
2022-12-31T11:46:19.256Z,16.30
2022-12-31T11:48:57.899Z,16.40
2022-12-31T11:51:50.032Z,16.40
2022-12-31T11:54:48.513Z,16.40
2022-12-31T11:57:26.427Z,16.40
2022-12-31T11:59:57.410Z,16.50
2022-12-31T12:02:28.766Z,16.50
2022-12-31T12:05:03.699Z,16.60
2022-12-31T12:07:35.556Z,16.60
2022-12-31T12:10:19.287Z,16.60
2022-12-31T12:12:48.111Z,16.60
2022-12-31T12:15:19.065Z,16.60
2022-12-31T12:17:53.626Z,16.70
2022-12-31T12:20:27.947Z,16.70
2022-12-31T12:22:57.539Z,16.70
2022-12-31T12:25:27.213Z,16.80
2022-12-31T12:27:54.730Z,16.80
2022-12-31T12:30:24.719Z,16.80
2022-12-31T12:32:55.696Z,16.90
2022-12-31T12:35:28.499Z,16.90
2022-12-31T12:38:01.609Z,16.90
2022-12-31T12:40:33.711Z,16.80
2022-12-31T12:43:02.775Z,16.90
2022-12-31T12:45:37.939Z,16.90
2022-12-31T12:48:17.309Z,16.90
2022-12-31T12:50:47.757Z,16.90
2022-12-31T12:53:27.810Z,16.90
2022-12-31T12:56:05.923Z,16.80
2022-12-31T12:58:42.743Z,16.90
2022-12-31T13:01:19.810Z,16.90
2022-12-31T13:04:33.918Z,16.90
2022-12-31T13:07:25.738Z,16.90
2022-12-31T13:10:05.280Z,16.90
2022-12-31T13:13:13.612Z,16.90
2022-12-31T13:15:31.456Z,16.90
2022-12-31T13:18:10.972Z,16.90
2022-12-31T13:20:44.054Z,16.90
2022-12-31T13:23:19.154Z,16.90
2022-12-31T13:26:01.334Z,16.90
2022-12-31T13:28:30.413Z,17.00
2022-12-31T13:31:06.475Z,16.90
2022-12-31T13:33:39.089Z,17.00
2022-12-31T13:36:10.704Z,17.00
2022-12-31T13:38:41.399Z,17.00
2022-12-31T13:41:13.773Z,17.00
2022-12-31T13:43:50.842Z,17.00
2022-12-31T13:46:25.179Z,17.00
2022-12-31T13:48:56.120Z,17.00
2022-12-31T13:51:43.058Z,17.00
2022-12-31T13:54:21.357Z,17.00
2022-12-31T13:56:51.021Z,17.10
2022-12-31T13:59:22.276Z,17.10
2022-12-31T14:01:54.826Z,17.10
2022-12-31T14:04:27.599Z,17.10
2022-12-31T14:07:02.070Z,17.10
2022-12-31T14:09:32.813Z,17.00
2022-12-31T14:12:15.085Z,17.00
2022-12-31T14:14:49.553Z,17.00
2022-12-31T14:17:22.557Z,17.00
2022-12-31T14:20:00.628Z,17.00
2022-12-31T14:22:36.102Z,17.00
2022-12-31T14:25:16.460Z,17.00
2022-12-31T14:27:46.546Z,17.00
2022-12-31T14:30:18.724Z,16.90
2022-12-31T14:33:05.070Z,16.90
2022-12-31T14:35:55.707Z,16.90
2022-12-31T14:38:35.282Z,16.90
2022-12-31T14:41:12.629Z,17.00
2022-12-31T14:43:51.118Z,17.00
2022-12-31T14:46:29.772Z,17.00
2022-12-31T14:49:06.484Z,16.90
2022-12-31T14:51:35.886Z,17.00
2022-12-31T14:54:04.737Z,16.90
2022-12-31T14:56:40.142Z,16.90
2022-12-31T14:59:25.111Z,16.90
2022-12-31T15:01:52.605Z,16.90
2022-12-31T15:04:41.812Z,16.90
2022-12-31T15:07:16.615Z,16.90
2022-12-31T15:09:57.740Z,16.90
2022-12-31T15:12:48.107Z,16.90
2022-12-31T15:15:57.291Z,16.90
2022-12-31T15:18:43.374Z,16.90
2022-12-31T15:21:40.189Z,16.80
2022-12-31T15:24:18.966Z,16.70
2022-12-31T15:26:51.421Z,16.80
2022-12-31T15:29:27.332Z,16.70
2022-12-31T15:31:58.981Z,16.70
2022-12-31T15:34:29.554Z,16.70
2022-12-31T15:36:59.551Z,16.60
2022-12-31T15:39:38.029Z,16.60
2022-12-31T15:42:43.421Z,16.60
2022-12-31T15:45:20.508Z,16.60
2022-12-31T15:47:52.311Z,16.60
2022-12-31T15:50:22.492Z,16.60
2022-12-31T15:52:53.838Z,16.60
2022-12-31T15:55:27.326Z,16.60
2022-12-31T15:58:01.866Z,16.50
2022-12-31T16:00:43.432Z,16.60
2022-12-31T16:03:20.080Z,16.50
2022-12-31T16:05:47.468Z,16.60
2022-12-31T16:08:19.203Z,16.60
2022-12-31T16:10:47.128Z,16.50
2022-12-31T16:13:21.709Z,16.50
2022-12-31T16:15:52.856Z,16.50
2022-12-31T16:18:23.003Z,16.50
2022-12-31T16:20:51.838Z,16.40
2022-12-31T16:23:22.442Z,16.40
2022-12-31T16:25:51.209Z,16.40
2022-12-31T16:28:24.946Z,16.40
2022-12-31T16:31:00.345Z,16.40
2022-12-31T16:33:28.030Z,16.40
2022-12-31T16:35:56.702Z,16.40
2022-12-31T16:38:31.484Z,16.40
2022-12-31T16:41:15.516Z,16.40
2022-12-31T16:43:45.206Z,16.40
2022-12-31T16:46:18.566Z,16.40
2022-12-31T16:48:48.380Z,16.50
2022-12-31T16:51:19.787Z,16.50
2022-12-31T16:53:48.230Z,16.50
2022-12-31T16:56:24.008Z,16.50
2022-12-31T16:58:59.679Z,16.50
2022-12-31T17:01:31.533Z,16.50
2022-12-31T17:04:02.573Z,16.60
2022-12-31T17:06:33.297Z,16.60
2022-12-31T17:09:21.683Z,16.60
2022-12-31T17:11:54.409Z,16.60
2022-12-31T17:14:25.022Z,16.60
2022-12-31T17:17:02.861Z,16.60
2022-12-31T17:19:40.363Z,16.60
2022-12-31T17:22:12.954Z,16.60
2022-12-31T17:24:40.348Z,16.70
2022-12-31T17:27:09.217Z,16.70
2022-12-31T17:29:37.835Z,16.70
2022-12-31T17:32:06.829Z,16.70
2022-12-31T17:34:36.759Z,16.70
2022-12-31T17:37:18.421Z,16.70
2022-12-31T17:39:48.156Z,16.70
2022-12-31T17:42:23.517Z,16.70
2022-12-31T17:44:55.602Z,16.70
2022-12-31T17:47:23.054Z,16.70
2022-12-31T17:49:50.424Z,16.70
2022-12-31T17:52:17.666Z,16.70
2022-12-31T17:54:44.915Z,16.70
2022-12-31T17:57:23.643Z,16.70
2022-12-31T17:59:52.333Z,16.70
2022-12-31T18:02:19.781Z,16.60
2022-12-31T18:04:47.148Z,16.70
2022-12-31T18:07:14.339Z,16.70
2022-12-31T18:09:41.523Z,16.70
2022-12-31T18:12:08.792Z,16.70
2022-12-31T18:14:36.021Z,16.70
2022-12-31T18:17:09.502Z,16.70
2022-12-31T18:20:03.824Z,16.70
2022-12-31T18:22:23.851Z,16.70
2022-12-31T18:24:54.231Z,16.60
2022-12-31T18:27:21.458Z,16.60
2022-12-31T18:29:48.704Z,16.60
2022-12-31T18:32:23.984Z,16.60
2022-12-31T18:34:51.492Z,16.60
2022-12-31T18:37:22.283Z,16.50
2022-12-31T18:39:49.963Z,16.50
2022-12-31T18:42:18.394Z,16.50
2022-12-31T18:44:46.095Z,16.50
2022-12-31T18:47:14.759Z,16.50
2022-12-31T18:49:44.905Z,16.50
2022-12-31T18:52:14.194Z,16.50
2022-12-31T18:54:42.203Z,16.40
2022-12-31T18:57:10.539Z,16.40
2022-12-31T18:59:37.995Z,16.40
2022-12-31T19:02:11.100Z,16.40
2022-12-31T19:04:38.303Z,16.30
2022-12-31T19:07:06.787Z,16.40
2022-12-31T19:09:54.629Z,16.30
2022-12-31T19:12:21.317Z,16.30
2022-12-31T19:14:48.512Z,16.30
2022-12-31T19:17:15.709Z,16.30
2022-12-31T19:19:42.876Z,16.30
2022-12-31T19:22:14.603Z,16.20
2022-12-31T19:24:41.889Z,16.20
2022-12-31T19:27:10.043Z,16.10
2022-12-31T19:29:37.360Z,16.10
2022-12-31T19:32:05.255Z,16.10
2022-12-31T19:34:32.428Z,16.10
2022-12-31T19:36:59.605Z,16.00
2022-12-31T19:39:28.095Z,16.00
2022-12-31T19:41:59.125Z,16.00
2022-12-31T19:44:27.090Z,16.00
2022-12-31T19:46:54.388Z,16.00
2022-12-31T19:49:21.681Z,16.00
2022-12-31T19:51:48.971Z,16.00
2022-12-31T19:54:16.163Z,15.90
2022-12-31T19:56:44.675Z,16.00
2022-12-31T19:59:11.930Z,16.00
2022-12-31T20:01:39.308Z,15.90
2022-12-31T20:04:06.583Z,15.90
2022-12-31T20:06:33.886Z,15.90
2022-12-31T20:09:02.379Z,15.90
2022-12-31T20:11:29.563Z,15.90
2022-12-31T20:13:58.122Z,15.90
2022-12-31T20:16:31.554Z,15.90
2022-12-31T20:18:58.888Z,15.90
2022-12-31T20:21:28.313Z,15.90
2022-12-31T20:23:56.218Z,15.90
2022-12-31T20:26:24.479Z,15.80
2022-12-31T20:28:52.577Z,15.90
2022-12-31T20:31:27.121Z,15.80
2022-12-31T20:33:54.536Z,15.80
2022-12-31T20:36:22.956Z,15.80
2022-12-31T20:38:50.340Z,15.80
2022-12-31T20:41:19.470Z,15.80
2022-12-31T20:43:47.052Z,15.80
2022-12-31T20:46:17.940Z,15.80
2022-12-31T20:48:47.642Z,15.80
2022-12-31T20:51:15.830Z,15.90
2022-12-31T20:53:46.633Z,15.90
2022-12-31T20:56:14.053Z,15.80
2022-12-31T20:58:41.368Z,15.90
2022-12-31T21:01:10.088Z,15.90
2022-12-31T21:04:05.071Z,15.90
2022-12-31T21:06:28.889Z,15.90
2022-12-31T21:08:57.067Z,15.90
2022-12-31T21:11:43.175Z,15.90
2022-12-31T21:14:10.584Z,15.90
2022-12-31T21:16:37.798Z,15.90
2022-12-31T21:19:05.537Z,15.90
2022-12-31T21:21:34.335Z,15.90
2022-12-31T21:24:02.059Z,15.90
2022-12-31T21:26:30.482Z,15.90
2022-12-31T21:28:58.144Z,16.00
2022-12-31T21:31:25.401Z,15.90
2022-12-31T21:33:52.651Z,15.90
2022-12-31T21:36:20.202Z,15.90
2022-12-31T21:38:49.127Z,15.90
2022-12-31T21:41:35.328Z,15.90
2022-12-31T21:44:03.178Z,15.90
2022-12-31T21:46:30.619Z,15.90
2022-12-31T21:48:58.980Z,15.90
2022-12-31T21:51:26.611Z,15.90
2022-12-31T21:53:55.224Z,15.90
2022-12-31T21:56:22.718Z,16.00
2022-12-31T21:59:12.902Z,16.00
2022-12-31T22:01:59.619Z,16.00
2022-12-31T22:05:01.006Z,16.00
2022-12-31T22:07:14.983Z,16.00
2022-12-31T22:09:43.498Z,16.00
2022-12-31T22:12:10.665Z,16.00
2022-12-31T22:14:37.979Z,16.00
2022-12-31T22:17:05.255Z,16.00
2022-12-31T22:19:43.487Z,15.90
2022-12-31T22:22:19.667Z,15.90
2022-12-31T22:24:48.199Z,15.90
2022-12-31T22:27:28.146Z,15.90
2022-12-31T22:29:57.026Z,15.90
2022-12-31T22:32:24.240Z,15.90
2022-12-31T22:34:51.456Z,15.80
2022-12-31T22:37:54.469Z,15.90
2022-12-31T22:40:08.368Z,15.90
2022-12-31T22:42:35.616Z,15.90
2022-12-31T22:45:03.155Z,15.90
2022-12-31T22:47:30.329Z,15.90
2022-12-31T22:49:57.505Z,15.90
2022-12-31T22:52:24.869Z,15.80
2022-12-31T22:54:52.120Z,15.80
2022-12-31T22:57:20.614Z,15.80
2022-12-31T22:59:47.889Z,15.80
2022-12-31T23:02:16.323Z,15.80
2022-12-31T23:04:43.500Z,15.80
2022-12-31T23:07:10.735Z,15.70
2022-12-31T23:09:56.953Z,15.70
2022-12-31T23:12:25.532Z,15.70
2022-12-31T23:15:11.565Z,15.70
2022-12-31T23:17:57.535Z,15.70
2022-12-31T23:20:43.940Z,15.70
2022-12-31T23:23:14.492Z,15.70
2022-12-31T23:25:43.769Z,15.70
2022-12-31T23:28:14.958Z,15.60
2022-12-31T23:30:43.118Z,15.60
2022-12-31T23:33:16.288Z,15.60
2022-12-31T23:35:43.674Z,15.60
2022-12-31T23:38:11.285Z,15.50
2022-12-31T23:40:38.528Z,15.60
2022-12-31T23:43:07.538Z,15.60
2022-12-31T23:45:36.729Z,15.60
2022-12-31T23:48:04.467Z,15.60
2022-12-31T23:50:31.693Z,15.60
2022-12-31T23:52:58.924Z,15.60
2022-12-31T23:55:26.176Z,15.60
2022-12-31T23:57:53.368Z,15.50
